sensor_id;sensor_type;location;lat;lon;timestamp;pressure;altitude;pressure_sealevel;temperature;humidity
73974;BME280;62336;-26.094;27.994;2022-07-31T00:01:06;84885.93;;;23.36;18.10
73974;BME280;62336;-26.094;27.994;2022-07-31T00:03:31;84886.49;;;22.83;18.22
73974;BME280;62336;-26.094;27.994;2022-07-31T00:05:57;84892.01;;;22.92;18.21
73974;BME280;62336;-26.094;27.994;2022-07-31T00:08:22;84896.67;;;23.02;18.09
73974;BME280;62336;-26.094;27.994;2022-07-31T00:10:48;84893.35;;;23.36;18.09
73974;BME280;62336;-26.094;27.994;2022-07-31T00:13:13;84891.04;;;23.31;17.85
73974;BME280;62336;-26.094;27.994;2022-07-31T00:15:39;84882.51;;;22.71;18.07
73974;BME280;62336;-26.094;27.994;2022-07-31T00:18:03;84888.60;;;22.84;17.92
73974;BME280;62336;-26.094;27.994;2022-07-31T00:20:29;84883.79;;;22.81;18.07
73974;BME280;62336;-26.094;27.994;2022-07-31T00:22:54;84885.47;;;22.97;17.86
73974;BME280;62336;-26.094;27.994;2022-07-31T00:25:20;84891.04;;;23.10;17.53
73974;BME280;62336;-26.094;27.994;2022-07-31T00:27:45;84891.25;;;23.28;17.72
73974;BME280;62336;-26.094;27.994;2022-07-31T00:30:11;84891.29;;;22.78;17.97
73974;BME280;62336;-26.094;27.994;2022-07-31T00:32:36;84886.70;;;23.03;17.59
73974;BME280;62336;-26.094;27.994;2022-07-31T00:35:01;84882.74;;;23.17;17.63
73974;BME280;62336;-26.094;27.994;2022-07-31T00:37:27;84884.65;;;23.21;17.52
73974;BME280;62336;-26.094;27.994;2022-07-31T00:39:52;84881.06;;;23.23;17.51
73974;BME280;62336;-26.094;27.994;2022-07-31T00:42:18;84883.56;;;23.17;17.77
73974;BME280;62336;-26.094;27.994;2022-07-31T00:44:43;84885.39;;;22.51;18.06
73974;BME280;62336;-26.094;27.994;2022-07-31T00:47:08;84885.69;;;22.76;17.94
73974;BME280;62336;-26.094;27.994;2022-07-31T00:49:34;84885.00;;;22.75;17.94
73974;BME280;62336;-26.094;27.994;2022-07-31T00:52:00;84879.64;;;22.85;18.21
73974;BME280;62336;-26.094;27.994;2022-07-31T00:54:25;84878.65;;;22.43;17.92
73974;BME280;62336;-26.094;27.994;2022-07-31T00:56:50;84879.03;;;22.86;18.16
73974;BME280;62336;-26.094;27.994;2022-07-31T00:59:15;84878.33;;;22.39;18.23
73974;BME280;62336;-26.094;27.994;2022-07-31T01:01:41;84882.23;;;22.40;18.29
73974;BME280;62336;-26.094;27.994;2022-07-31T01:04:06;84885.79;;;22.66;18.20
73974;BME280;62336;-26.094;27.994;2022-07-31T01:06:32;84887.54;;;22.74;18.14
73974;BME280;62336;-26.094;27.994;2022-07-31T01:08:57;84890.71;;;22.63;18.01
73974;BME280;62336;-26.094;27.994;2022-07-31T01:11:31;84888.13;;;22.67;18.14
73974;BME280;62336;-26.094;27.994;2022-07-31T01:13:51;84888.80;;;22.61;18.30
73974;BME280;62336;-26.094;27.994;2022-07-31T01:16:14;84891.15;;;22.62;18.29
73974;BME280;62336;-26.094;27.994;2022-07-31T01:18:40;84891.98;;;22.51;18.07
73974;BME280;62336;-26.094;27.994;2022-07-31T01:21:07;84890.12;;;22.36;18.45
73974;BME280;62336;-26.094;27.994;2022-07-31T01:23:47;84889.70;;;22.29;18.34
73974;BME280;62336;-26.094;27.994;2022-07-31T01:26:12;84882.08;;;22.59;18.12
73974;BME280;62336;-26.094;27.994;2022-07-31T01:30:51;84880.80;;;22.36;18.46
73974;BME280;62336;-26.094;27.994;2022-07-31T01:33:16;84878.33;;;22.49;18.30
73974;BME280;62336;-26.094;27.994;2022-07-31T01:35:41;84878.11;;;22.33;18.38
73974;BME280;62336;-26.094;27.994;2022-07-31T01:38:12;84880.87;;;22.16;18.55
73974;BME280;62336;-26.094;27.994;2022-07-31T01:40:32;84880.43;;;21.91;18.63
73974;BME280;62336;-26.094;27.994;2022-07-31T01:42:57;84878.25;;;22.33;18.73
73974;BME280;62336;-26.094;27.994;2022-07-31T01:45:20;84880.62;;;21.95;18.62
73974;BME280;62336;-26.094;27.994;2022-07-31T01:47:45;84876.20;;;22.41;18.26
73974;BME280;62336;-26.094;27.994;2022-07-31T01:50:11;84872.96;;;22.20;18.39
73974;BME280;62336;-26.094;27.994;2022-07-31T01:52:36;84872.69;;;22.52;18.49
73974;BME280;62336;-26.094;27.994;2022-07-31T01:55:02;84865.12;;;22.06;18.49
73974;BME280;62336;-26.094;27.994;2022-07-31T01:57:28;84865.32;;;21.90;18.41
73974;BME280;62336;-26.094;27.994;2022-07-31T01:59:54;84865.58;;;21.66;18.74
73974;BME280;62336;-26.094;27.994;2022-07-31T02:02:18;84863.56;;;22.30;18.64
73974;BME280;62336;-26.094;27.994;2022-07-31T02:04:42;84860.67;;;21.97;18.79
73974;BME280;62336;-26.094;27.994;2022-07-31T02:07:08;84854.37;;;21.90;18.73
73974;BME280;62336;-26.094;27.994;2022-07-31T02:09:34;84852.49;;;21.83;18.94
73974;BME280;62336;-26.094;27.994;2022-07-31T02:12:00;84852.08;;;21.89;18.92
73974;BME280;62336;-26.094;27.994;2022-07-31T02:14:25;84850.62;;;22.17;18.92
73974;BME280;62336;-26.094;27.994;2022-07-31T02:16:50;84851.42;;;22.13;18.72
73974;BME280;62336;-26.094;27.994;2022-07-31T02:19:16;84856.68;;;21.83;18.84
73974;BME280;62336;-26.094;27.994;2022-07-31T02:21:41;84858.62;;;21.57;18.84
73974;BME280;62336;-26.094;27.994;2022-07-31T02:24:07;84855.37;;;22.02;18.71
73974;BME280;62336;-26.094;27.994;2022-07-31T02:26:34;84854.11;;;21.56;19.03
73974;BME280;62336;-26.094;27.994;2022-07-31T02:28:57;84855.77;;;21.96;19.22
73974;BME280;62336;-26.094;27.994;2022-07-31T02:31:23;84854.12;;;22.28;18.59
73974;BME280;62336;-26.094;27.994;2022-07-31T02:33:48;84853.16;;;22.39;18.81
73974;BME280;62336;-26.094;27.994;2022-07-31T02:36:14;84853.12;;;21.92;18.82
73974;BME280;62336;-26.094;27.994;2022-07-31T02:38:39;84854.20;;;21.57;19.00
73974;BME280;62336;-26.094;27.994;2022-07-31T02:41:14;84855.66;;;21.68;19.22
73974;BME280;62336;-26.094;27.994;2022-07-31T02:43:31;84852.77;;;21.57;19.15
73974;BME280;62336;-26.094;27.994;2022-07-31T02:45:54;84854.01;;;21.72;19.06
73974;BME280;62336;-26.094;27.994;2022-07-31T02:48:20;84855.19;;;21.73;19.23
73974;BME280;62336;-26.094;27.994;2022-07-31T02:50:44;84859.04;;;21.83;19.18
73974;BME280;62336;-26.094;27.994;2022-07-31T02:53:09;84856.11;;;21.43;19.27
73974;BME280;62336;-26.094;27.994;2022-07-31T02:55:35;84858.88;;;21.58;19.20
73974;BME280;62336;-26.094;27.994;2022-07-31T02:58:01;84859.90;;;21.78;19.25
73974;BME280;62336;-26.094;27.994;2022-07-31T03:00:26;84860.77;;;21.40;19.19
73974;BME280;62336;-26.094;27.994;2022-07-31T03:02:52;84863.30;;;21.60;19.10
73974;BME280;62336;-26.094;27.994;2022-07-31T03:05:16;84864.22;;;21.73;19.01
73974;BME280;62336;-26.094;27.994;2022-07-31T03:07:42;84863.10;;;21.47;19.13
73974;BME280;62336;-26.094;27.994;2022-07-31T03:10:08;84866.11;;;21.92;19.05
73974;BME280;62336;-26.094;27.994;2022-07-31T03:12:33;84866.53;;;21.58;19.09
73974;BME280;62336;-26.094;27.994;2022-07-31T03:14:58;84868.58;;;21.77;19.16
73974;BME280;62336;-26.094;27.994;2022-07-31T03:17:24;84871.09;;;21.52;19.18
73974;BME280;62336;-26.094;27.994;2022-07-31T03:19:49;84873.45;;;21.58;19.06
73974;BME280;62336;-26.094;27.994;2022-07-31T03:22:15;84875.34;;;21.55;19.45
73974;BME280;62336;-26.094;27.994;2022-07-31T03:24:40;84879.74;;;21.71;19.36
73974;BME280;62336;-26.094;27.994;2022-07-31T03:27:05;84878.02;;;21.81;19.04
73974;BME280;62336;-26.094;27.994;2022-07-31T03:29:36;84878.26;;;21.68;19.06
73974;BME280;62336;-26.094;27.994;2022-07-31T03:31:56;84880.92;;;21.47;19.21
73974;BME280;62336;-26.094;27.994;2022-07-31T03:34:22;84879.57;;;21.62;19.31
73974;BME280;62336;-26.094;27.994;2022-07-31T03:36:46;84881.21;;;21.62;19.30
73974;BME280;62336;-26.094;27.994;2022-07-31T03:39:13;84881.33;;;21.37;19.24
73974;BME280;62336;-26.094;27.994;2022-07-31T03:41:38;84881.84;;;21.50;19.42
73974;BME280;62336;-26.094;27.994;2022-07-31T03:44:03;84886.25;;;21.50;19.38
73974;BME280;62336;-26.094;27.994;2022-07-31T03:46:29;84886.58;;;21.38;19.37
73974;BME280;62336;-26.094;27.994;2022-07-31T03:48:54;84890.46;;;21.37;19.53
73974;BME280;62336;-26.094;27.994;2022-07-31T03:51:20;84887.66;;;21.62;19.12
73974;BME280;62336;-26.094;27.994;2022-07-31T03:53:45;84887.59;;;21.65;19.19
73974;BME280;62336;-26.094;27.994;2022-07-31T03:56:10;84890.25;;;21.53;19.39
73974;BME280;62336;-26.094;27.994;2022-07-31T03:58:35;84890.57;;;21.57;19.28
73974;BME280;62336;-26.094;27.994;2022-07-31T04:01:01;84896.63;;;21.35;19.64
73974;BME280;62336;-26.094;27.994;2022-07-31T04:03:30;84891.41;;;21.60;19.34
73974;BME280;62336;-26.094;27.994;2022-07-31T04:05:52;84895.62;;;21.16;19.60
73974;BME280;62336;-26.094;27.994;2022-07-31T04:08:17;84900.93;;;21.45;19.63
73974;BME280;62336;-26.094;27.994;2022-07-31T04:10:42;84899.78;;;21.42;19.67
73974;BME280;62336;-26.094;27.994;2022-07-31T04:13:08;84896.47;;;21.68;19.74
73974;BME280;62336;-26.094;27.994;2022-07-31T04:15:34;84893.70;;;21.78;19.68
73974;BME280;62336;-26.094;27.994;2022-07-31T04:17:58;84898.65;;;21.81;19.60
73974;BME280;62336;-26.094;27.994;2022-07-31T04:20:25;84900.69;;;21.83;19.41
73974;BME280;62336;-26.094;27.994;2022-07-31T04:22:49;84899.26;;;21.08;19.66
73974;BME280;62336;-26.094;27.994;2022-07-31T04:25:14;84897.02;;;21.59;19.59
73974;BME280;62336;-26.094;27.994;2022-07-31T04:27:40;84898.52;;;21.80;19.36
73974;BME280;62336;-26.094;27.994;2022-07-31T04:30:07;84901.19;;;21.70;19.56
73974;BME280;62336;-26.094;27.994;2022-07-31T04:32:30;84903.69;;;21.68;19.50
73974;BME280;62336;-26.094;27.994;2022-07-31T04:34:56;84910.84;;;21.63;19.67
73974;BME280;62336;-26.094;27.994;2022-07-31T04:37:22;84907.73;;;21.39;19.61
73974;BME280;62336;-26.094;27.994;2022-07-31T04:39:47;84910.12;;;21.58;19.46
73974;BME280;62336;-26.094;27.994;2022-07-31T04:42:13;84917.91;;;21.51;19.73
73974;BME280;62336;-26.094;27.994;2022-07-31T04:44:38;84933.35;;;21.31;19.92
73974;BME280;62336;-26.094;27.994;2022-07-31T04:47:05;84939.01;;;21.36;19.83
73974;BME280;62336;-26.094;27.994;2022-07-31T04:49:29;84940.63;;;21.41;19.66
73974;BME280;62336;-26.094;27.994;2022-07-31T04:51:54;84944.35;;;21.70;19.60
73974;BME280;62336;-26.094;27.994;2022-07-31T04:54:20;84952.85;;;21.72;19.52
73974;BME280;62336;-26.094;27.994;2022-07-31T04:56:45;84952.38;;;22.06;19.32
73974;BME280;62336;-26.094;27.994;2022-07-31T04:59:12;84952.28;;;21.79;19.11
73974;BME280;62336;-26.094;27.994;2022-07-31T05:01:37;84954.94;;;21.84;19.05
73974;BME280;62336;-26.094;27.994;2022-07-31T05:04:01;84956.65;;;21.81;18.97
73974;BME280;62336;-26.094;27.994;2022-07-31T05:06:34;84952.77;;;21.91;18.70
73974;BME280;62336;-26.094;27.994;2022-07-31T05:08:53;84948.19;;;21.69;18.71
73974;BME280;62336;-26.094;27.994;2022-07-31T05:11:18;84952.71;;;21.82;18.71
73974;BME280;62336;-26.094;27.994;2022-07-31T05:13:43;84952.60;;;22.44;18.49
73974;BME280;62336;-26.094;27.994;2022-07-31T05:16:11;84949.60;;;22.39;18.71
73974;BME280;62336;-26.094;27.994;2022-07-31T05:18:33;84938.80;;;22.06;18.54
73974;BME280;62336;-26.094;27.994;2022-07-31T05:20:59;84930.41;;;22.31;18.50
73974;BME280;62336;-26.094;27.994;2022-07-31T05:23:24;84922.29;;;22.25;18.26
73974;BME280;62336;-26.094;27.994;2022-07-31T05:25:50;84911.95;;;22.26;18.07
73974;BME280;62336;-26.094;27.994;2022-07-31T05:28:16;84910.63;;;22.45;17.98
73974;BME280;62336;-26.094;27.994;2022-07-31T05:30:41;84916.47;;;22.43;18.01
73974;BME280;62336;-26.094;27.994;2022-07-31T05:33:06;84917.72;;;22.42;18.42
73974;BME280;62336;-26.094;27.994;2022-07-31T05:35:32;84919.04;;;22.63;18.34
73974;BME280;62336;-26.094;27.994;2022-07-31T05:37:57;84924.08;;;22.96;18.43
73974;BME280;62336;-26.094;27.994;2022-07-31T05:40:22;84925.37;;;22.93;18.42
73974;BME280;62336;-26.094;27.994;2022-07-31T05:42:48;84927.66;;;22.92;18.45
73974;BME280;62336;-26.094;27.994;2022-07-31T05:45:13;84926.26;;;23.02;18.50
73974;BME280;62336;-26.094;27.994;2022-07-31T05:47:39;84927.56;;;22.87;18.61
73974;BME280;62336;-26.094;27.994;2022-07-31T05:50:05;84928.18;;;22.75;18.78
73974;BME280;62336;-26.094;27.994;2022-07-31T05:52:30;84927.55;;;22.58;18.40
73974;BME280;62336;-26.094;27.994;2022-07-31T05:54:55;84929.67;;;22.66;18.46
73974;BME280;62336;-26.094;27.994;2022-07-31T05:57:21;84940.36;;;22.79;18.93
73974;BME280;62336;-26.094;27.994;2022-07-31T05:59:46;84944.45;;;22.23;19.32
73974;BME280;62336;-26.094;27.994;2022-07-31T06:02:12;84943.85;;;22.86;19.13
73974;BME280;62336;-26.094;27.994;2022-07-31T06:04:37;84947.34;;;22.93;18.80
73974;BME280;62336;-26.094;27.994;2022-07-31T06:07:02;84949.33;;;23.08;18.51
73974;BME280;62336;-26.094;27.994;2022-07-31T06:09:28;84955.65;;;23.06;18.78
73974;BME280;62336;-26.094;27.994;2022-07-31T06:11:54;84958.78;;;23.01;18.98
73974;BME280;62336;-26.094;27.994;2022-07-31T06:14:20;84959.16;;;23.18;18.48
73974;BME280;62336;-26.094;27.994;2022-07-31T06:16:44;84959.64;;;23.42;18.20
73974;BME280;62336;-26.094;27.994;2022-07-31T06:19:09;84954.21;;;23.34;17.96
73974;BME280;62336;-26.094;27.994;2022-07-31T06:21:35;84957.52;;;23.45;18.14
73974;BME280;62336;-26.094;27.994;2022-07-31T06:24:00;84956.98;;;23.30;18.03
73974;BME280;62336;-26.094;27.994;2022-07-31T06:26:26;84959.71;;;23.61;18.76
73974;BME280;62336;-26.094;27.994;2022-07-31T06:28:52;84963.87;;;23.55;18.51
73974;BME280;62336;-26.094;27.994;2022-07-31T06:31:18;84971.43;;;23.43;18.22
73974;BME280;62336;-26.094;27.994;2022-07-31T06:33:43;84976.38;;;23.71;17.93
73974;BME280;62336;-26.094;27.994;2022-07-31T06:36:08;84981.85;;;23.74;18.24
73974;BME280;62336;-26.094;27.994;2022-07-31T06:38:34;84989.54;;;23.26;17.92
73974;BME280;62336;-26.094;27.994;2022-07-31T06:40:59;84993.22;;;23.22;17.70
73974;BME280;62336;-26.094;27.994;2022-07-31T06:43:25;84993.38;;;23.68;17.87
73974;BME280;62336;-26.094;27.994;2022-07-31T06:45:50;84997.32;;;23.95;18.06
73974;BME280;62336;-26.094;27.994;2022-07-31T06:48:15;85005.11;;;23.83;17.21
73974;BME280;62336;-26.094;27.994;2022-07-31T06:50:40;85015.79;;;23.96;16.24
73974;BME280;62336;-26.094;27.994;2022-07-31T06:53:06;85020.44;;;23.83;15.90
73974;BME280;62336;-26.094;27.994;2022-07-31T06:55:31;85024.66;;;24.14;15.80
73974;BME280;62336;-26.094;27.994;2022-07-31T06:57:56;85031.05;;;24.25;16.24
73974;BME280;62336;-26.094;27.994;2022-07-31T07:00:22;85034.65;;;24.15;16.16
73974;BME280;62336;-26.094;27.994;2022-07-31T07:02:47;85036.87;;;24.32;15.75
73974;BME280;62336;-26.094;27.994;2022-07-31T07:05:12;85034.31;;;24.06;14.41
73974;BME280;62336;-26.094;27.994;2022-07-31T07:07:38;85033.07;;;24.68;14.42
73974;BME280;62336;-26.094;27.994;2022-07-31T07:10:04;85039.03;;;25.18;14.42
73974;BME280;62336;-26.094;27.994;2022-07-31T07:12:29;85048.12;;;25.14;13.49
73974;BME280;62336;-26.094;27.994;2022-07-31T07:14:54;85055.95;;;24.91;13.34
73974;BME280;62336;-26.094;27.994;2022-07-31T07:17:21;85058.21;;;25.11;14.01
73974;BME280;62336;-26.094;27.994;2022-07-31T07:19:45;85063.96;;;25.33;13.49
73974;BME280;62336;-26.094;27.994;2022-07-31T07:22:10;85070.72;;;26.07;13.23
73974;BME280;62336;-26.094;27.994;2022-07-31T07:24:37;85069.15;;;26.19;13.05
73974;BME280;62336;-26.094;27.994;2022-07-31T07:27:02;85069.10;;;26.08;13.74
73974;BME280;62336;-26.094;27.994;2022-07-31T07:29:27;85070.77;;;26.16;13.81
73974;BME280;62336;-26.094;27.994;2022-07-31T07:31:53;85069.11;;;26.15;14.22
73974;BME280;62336;-26.094;27.994;2022-07-31T07:34:19;85071.53;;;26.56;14.17
73974;BME280;62336;-26.094;27.994;2022-07-31T07:36:44;85074.98;;;26.27;13.94
73974;BME280;62336;-26.094;27.994;2022-07-31T07:39:10;85082.04;;;26.96;13.65
73974;BME280;62336;-26.094;27.994;2022-07-31T07:41:35;85079.64;;;26.89;12.41
73974;BME280;62336;-26.094;27.994;2022-07-31T07:44:01;85079.82;;;26.81;12.52
73974;BME280;62336;-26.094;27.994;2022-07-31T07:46:27;85087.54;;;27.20;12.77
73974;BME280;62336;-26.094;27.994;2022-07-31T07:48:53;85085.10;;;26.79;12.05
73974;BME280;62336;-26.094;27.994;2022-07-31T07:51:19;85083.20;;;27.05;12.43
73974;BME280;62336;-26.094;27.994;2022-07-31T07:53:43;85083.28;;;26.97;12.03
73974;BME280;62336;-26.094;27.994;2022-07-31T07:56:09;85087.34;;;27.04;12.06
73974;BME280;62336;-26.094;27.994;2022-07-31T07:58:34;85086.97;;;27.46;12.13
73974;BME280;62336;-26.094;27.994;2022-07-31T08:00:59;85089.41;;;27.64;11.46
73974;BME280;62336;-26.094;27.994;2022-07-31T08:03:24;85080.72;;;27.63;11.51
73974;BME280;62336;-26.094;27.994;2022-07-31T08:05:49;85082.27;;;27.69;10.74
73974;BME280;62336;-26.094;27.994;2022-07-31T08:08:15;85076.86;;;28.20;10.17
73974;BME280;62336;-26.094;27.994;2022-07-31T08:10:40;85075.54;;;28.18;10.79
73974;BME280;62336;-26.094;27.994;2022-07-31T08:13:06;85081.16;;;28.44;10.75
73974;BME280;62336;-26.094;27.994;2022-07-31T08:15:31;85081.65;;;28.19;10.70
73974;BME280;62336;-26.094;27.994;2022-07-31T08:17:56;85088.09;;;28.41;10.60
73974;BME280;62336;-26.094;27.994;2022-07-31T08:20:22;85091.56;;;28.25;10.37
73974;BME280;62336;-26.094;27.994;2022-07-31T08:22:47;85094.98;;;28.70;10.02
73974;BME280;62336;-26.094;27.994;2022-07-31T08:25:13;85094.55;;;28.78;10.92
73974;BME280;62336;-26.094;27.994;2022-07-31T08:27:38;85089.09;;;29.06;10.26
73974;BME280;62336;-26.094;27.994;2022-07-31T08:30:04;85086.79;;;29.17;10.26
73974;BME280;62336;-26.094;27.994;2022-07-31T08:32:29;85088.04;;;29.15;9.69
73974;BME280;62336;-26.094;27.994;2022-07-31T08:34:55;85080.68;;;29.15;9.68
73974;BME280;62336;-26.094;27.994;2022-07-31T08:37:21;85084.28;;;29.02;9.73
73974;BME280;62336;-26.094;27.994;2022-07-31T08:39:46;85080.61;;;28.90;10.01
73974;BME280;62336;-26.094;27.994;2022-07-31T08:42:11;85073.39;;;29.69;9.65
73974;BME280;62336;-26.094;27.994;2022-07-31T08:44:37;85072.80;;;29.42;9.64
73974;BME280;62336;-26.094;27.994;2022-07-31T08:47:02;85070.48;;;29.98;9.54
73974;BME280;62336;-26.094;27.994;2022-07-31T08:49:29;85070.76;;;29.31;9.38
73974;BME280;62336;-26.094;27.994;2022-07-31T08:51:53;85071.83;;;29.24;9.14
73974;BME280;62336;-26.094;27.994;2022-07-31T08:54:19;85071.38;;;29.52;9.43
73974;BME280;62336;-26.094;27.994;2022-07-31T08:56:43;85066.50;;;29.65;9.33
73974;BME280;62336;-26.094;27.994;2022-07-31T08:59:08;85067.01;;;29.68;9.38
73974;BME280;62336;-26.094;27.994;2022-07-31T09:01:35;85065.61;;;29.89;9.20
73974;BME280;62336;-26.094;27.994;2022-07-31T09:03:59;85064.34;;;29.47;8.92
73974;BME280;62336;-26.094;27.994;2022-07-31T09:06:25;85065.05;;;29.77;8.75
73974;BME280;62336;-26.094;27.994;2022-07-31T09:08:50;85064.70;;;29.74;8.65
73974;BME280;62336;-26.094;27.994;2022-07-31T09:11:16;85066.73;;;29.20;9.25
73974;BME280;62336;-26.094;27.994;2022-07-31T09:16:06;85062.33;;;29.47;9.55
73974;BME280;62336;-26.094;27.994;2022-07-31T09:18:32;85061.18;;;30.16;9.37
73974;BME280;62336;-26.094;27.994;2022-07-31T09:20:59;85067.93;;;30.19;8.84
73974;BME280;62336;-26.094;27.994;2022-07-31T09:23:24;85067.80;;;30.31;8.85
73974;BME280;62336;-26.094;27.994;2022-07-31T09:25:52;85061.99;;;30.60;8.83
73974;BME280;62336;-26.094;27.994;2022-07-31T09:28:13;85059.38;;;30.31;8.69
73974;BME280;62336;-26.094;27.994;2022-07-31T09:30:39;85049.90;;;30.51;8.46
73974;BME280;62336;-26.094;27.994;2022-07-31T09:33:14;85046.82;;;30.42;8.71
73974;BME280;62336;-26.094;27.994;2022-07-31T09:35:30;85044.46;;;30.51;8.12
73974;BME280;62336;-26.094;27.994;2022-07-31T09:37:55;85039.65;;;30.47;8.53
73974;BME280;62336;-26.094;27.994;2022-07-31T09:40:21;85030.64;;;30.27;8.40
73974;BME280;62336;-26.094;27.994;2022-07-31T09:42:46;85028.83;;;30.35;8.77
73974;BME280;62336;-26.094;27.994;2022-07-31T09:45:18;85031.85;;;30.59;8.95
73974;BME280;62336;-26.094;27.994;2022-07-31T09:47:38;85031.69;;;30.52;8.73
73974;BME280;62336;-26.094;27.994;2022-07-31T09:50:04;85031.59;;;30.73;9.36
73974;BME280;62336;-26.094;27.994;2022-07-31T09:52:30;85031.42;;;30.74;8.78
73974;BME280;62336;-26.094;27.994;2022-07-31T09:55:04;85034.91;;;31.12;8.94
73974;BME280;62336;-26.094;27.994;2022-07-31T09:57:19;85031.64;;;30.67;9.09
73974;BME280;62336;-26.094;27.994;2022-07-31T09:59:44;85031.85;;;30.52;9.09
73974;BME280;62336;-26.094;27.994;2022-07-31T10:02:13;85029.71;;;30.70;8.89
73974;BME280;62336;-26.094;27.994;2022-07-31T10:04:37;85024.68;;;30.98;8.59
73974;BME280;62336;-26.094;27.994;2022-07-31T10:07:01;85027.08;;;30.67;8.69
73974;BME280;62336;-26.094;27.994;2022-07-31T10:09:27;85025.61;;;30.79;8.97
73974;BME280;62336;-26.094;27.994;2022-07-31T10:11:53;85025.57;;;30.65;8.97
73974;BME280;62336;-26.094;27.994;2022-07-31T10:14:23;85029.24;;;30.83;8.65
73974;BME280;62336;-26.094;27.994;2022-07-31T10:16:43;85029.88;;;30.50;8.51
73974;BME280;62336;-26.094;27.994;2022-07-31T10:19:11;85036.11;;;30.26;8.27
73974;BME280;62336;-26.094;27.994;2022-07-31T10:21:37;85030.43;;;30.45;8.77
73974;BME280;62336;-26.094;27.994;2022-07-31T10:23:59;85036.12;;;30.28;8.83
73974;BME280;62336;-26.094;27.994;2022-07-31T10:26:24;85031.98;;;30.71;8.25
73974;BME280;62336;-26.094;27.994;2022-07-31T10:28:49;85030.86;;;30.34;8.45
73974;BME280;62336;-26.094;27.994;2022-07-31T10:31:14;85028.85;;;30.42;8.63
73974;BME280;62336;-26.094;27.994;2022-07-31T10:33:39;85028.24;;;30.54;8.91
73974;BME280;62336;-26.094;27.994;2022-07-31T10:36:08;85028.50;;;30.78;8.49
73974;BME280;62336;-26.094;27.994;2022-07-31T10:38:35;85029.20;;;30.60;8.35
73974;BME280;62336;-26.094;27.994;2022-07-31T10:41:03;85029.77;;;29.96;8.47
73974;BME280;62336;-26.094;27.994;2022-07-31T10:43:26;85031.77;;;29.63;8.66
73974;BME280;62336;-26.094;27.994;2022-07-31T10:45:49;85034.82;;;29.68;8.71
73974;BME280;62336;-26.094;27.994;2022-07-31T10:48:12;85029.40;;;29.64;8.64
73974;BME280;62336;-26.094;27.994;2022-07-31T10:50:37;85024.97;;;29.05;8.92
73974;BME280;62336;-26.094;27.994;2022-07-31T10:53:07;85018.19;;;29.64;8.98
73974;BME280;62336;-26.094;27.994;2022-07-31T10:55:28;85013.40;;;29.51;8.96
73974;BME280;62336;-26.094;27.994;2022-07-31T10:57:54;85007.57;;;29.38;8.80
73974;BME280;62336;-26.094;27.994;2022-07-31T11:00:20;85008.18;;;29.76;9.13
73974;BME280;62336;-26.094;27.994;2022-07-31T11:02:51;85006.09;;;29.93;9.05
73974;BME280;62336;-26.094;27.994;2022-07-31T11:05:12;85004.07;;;30.40;8.89
73974;BME280;62336;-26.094;27.994;2022-07-31T11:07:36;85000.64;;;30.11;9.17
73974;BME280;62336;-26.094;27.994;2022-07-31T11:10:10;85003.51;;;30.60;9.29
73974;BME280;62336;-26.094;27.994;2022-07-31T11:12:26;85000.05;;;30.77;8.34
73974;BME280;62336;-26.094;27.994;2022-07-31T11:14:52;84995.62;;;31.06;9.01
73974;BME280;62336;-26.094;27.994;2022-07-31T11:17:18;84999.21;;;31.33;8.21
73974;BME280;62336;-26.094;27.994;2022-07-31T11:19:43;84995.71;;;30.92;8.30
73974;BME280;62336;-26.094;27.994;2022-07-31T11:22:10;84986.88;;;31.47;8.18
73974;BME280;62336;-26.094;27.994;2022-07-31T11:24:34;84989.76;;;31.96;7.48
73974;BME280;62336;-26.094;27.994;2022-07-31T11:27:00;84984.00;;;31.64;7.90
73974;BME280;62336;-26.094;27.994;2022-07-31T11:29:27;84980.81;;;31.20;7.50
73974;BME280;62336;-26.094;27.994;2022-07-31T11:31:50;84981.03;;;31.47;7.52
73974;BME280;62336;-26.094;27.994;2022-07-31T11:34:16;84978.08;;;32.09;7.57
73974;BME280;62336;-26.094;27.994;2022-07-31T11:36:42;84973.32;;;32.12;7.94
73974;BME280;62336;-26.094;27.994;2022-07-31T11:39:11;84965.84;;;31.96;7.55
73974;BME280;62336;-26.094;27.994;2022-07-31T11:41:32;84965.79;;;31.68;7.78
73974;BME280;62336;-26.094;27.994;2022-07-31T11:43:57;84968.24;;;31.59;8.36
73974;BME280;62336;-26.094;27.994;2022-07-31T11:46:24;84969.89;;;31.43;7.53
73974;BME280;62336;-26.094;27.994;2022-07-31T11:48:47;84962.95;;;31.76;7.03
73974;BME280;62336;-26.094;27.994;2022-07-31T11:51:17;84963.23;;;32.30;7.13
73974;BME280;62336;-26.094;27.994;2022-07-31T11:53:40;84964.83;;;31.92;7.39
73974;BME280;62336;-26.094;27.994;2022-07-31T11:56:03;84966.15;;;31.77;7.35
73974;BME280;62336;-26.094;27.994;2022-07-31T11:58:29;84966.72;;;31.58;7.61
73974;BME280;62336;-26.094;27.994;2022-07-31T12:00:56;84969.40;;;31.68;7.71
73974;BME280;62336;-26.094;27.994;2022-07-31T12:03:22;84965.51;;;31.45;7.91
73974;BME280;62336;-26.094;27.994;2022-07-31T12:05:47;84969.75;;;31.41;8.04
73974;BME280;62336;-26.094;27.994;2022-07-31T12:08:11;84971.83;;;31.47;7.91
73974;BME280;62336;-26.094;27.994;2022-07-31T12:10:36;84974.34;;;30.82;8.36
73974;BME280;62336;-26.094;27.994;2022-07-31T12:13:01;84974.12;;;30.52;8.55
73974;BME280;62336;-26.094;27.994;2022-07-31T12:15:26;84968.50;;;30.69;8.40
73974;BME280;62336;-26.094;27.994;2022-07-31T12:17:59;84965.84;;;30.76;8.77
73974;BME280;62336;-26.094;27.994;2022-07-31T12:20:17;84964.83;;;31.16;8.37
73974;BME280;62336;-26.094;27.994;2022-07-31T12:22:42;84966.62;;;31.36;8.46
73974;BME280;62336;-26.094;27.994;2022-07-31T12:25:08;84969.17;;;31.13;8.17
73974;BME280;62336;-26.094;27.994;2022-07-31T12:27:34;84969.32;;;31.12;8.01
73974;BME280;62336;-26.094;27.994;2022-07-31T12:29:59;84966.35;;;31.00;8.24
73974;BME280;62336;-26.094;27.994;2022-07-31T12:32:25;84968.71;;;31.09;8.10
73974;BME280;62336;-26.094;27.994;2022-07-31T12:37:16;84965.53;;;31.02;8.34
73974;BME280;62336;-26.094;27.994;2022-07-31T12:39:50;84962.16;;;31.20;7.95